CYGP

Gaspé (Michel-Pouliot) Airport

Gaspé, Quebec, Canada
METAR CYGP 160000Z 25005KT 190V310 15SM FEW041 FEW066 00/M05 A3000 RMK SC1AC1 SLP163
Observed Flight Rules
Dec-16 @ 00:00 UTC (an hour ago) Visual Flight Rules
Wind Visibility Clouds
250° at 5 knots 15 miles
  • Few at 4,100' AGL
  • Few at 6,600' AGL
Temperatures Readings
Current 0°C / 32°F
Dewpoint -5°C / 23°F
Humidity 69%
Altimeter 30" Hg
Pressure 1016.3 hPa
Elevation 33
METAR CYGP 160000Z 25005KT 190V310 15SM FEW041 FEW066 00/M05 A3000 RMK SC1AC1 SLP163
Observed Flight Rules
Dec-16 @ 00:00 UTC
(an hour ago)
VFR
Wind Visibility
250° at 5 knots 15 miles
Clouds
  • Few at 4,100' AGL
  • Few at 6,600' AGL
Temperature Dewpoint
0°C / 32°F -5°C / 23°F
Humidity Altimeter Pressure
69% 30" Hg 1016.3 hPa